Time;durP1;ratioP1;P1;durP2;ratioP2;P2;SDS_P1;SDS_P2;PMS_P1;PMS_P2;Temp;Humidity;BMP_temperature;BMP_pressure;BME280_temperature;BME280_humidity;BME280_pressure;Samples;Min_cycle;Max_cycle;Signal;HPM_P1;HPM_P2
2021/10/07 00:01:56;;;;;;;3.20;1.73;;;16.90;58.00;;;;;;5075536;28;20188;-47
2021/10/07 00:04:22;;;;;;;4.03;1.30;;;16.90;57.90;;;;;;5080543;28;20798;-45
2021/10/07 00:06:47;;;;;;;1.77;1.30;;;16.90;57.80;;;;;;5073900;28;20191;-45
2021/10/07 00:09:13;;;;;;;1.43;1.33;;;17.00;57.90;;;;;;5076368;28;20594;-47
2021/10/07 00:11:39;;;;;;;3.63;1.80;;;17.00;57.70;;;;;;5074651;28;20219;-46
2021/10/07 00:14:06;;;;;;;2.00;1.90;;;17.00;57.60;;;;;;5075051;28;20226;-45
2021/10/07 00:16:33;;;;;;;3.30;1.43;;;17.00;57.90;;;;;;5083021;28;20194;-45
2021/10/07 00:18:58;;;;;;;4.70;2.00;;;16.90;57.90;;;;;;5078596;28;20484;-45
2021/10/07 00:21:24;;;;;;;1.97;1.60;;;16.90;58.10;;;;;;5075355;28;20445;-45
2021/10/07 00:26:28;;;;;;;1.60;1.50;;;16.90;58.10;;;;;;5076535;28;20195;-47
2021/10/07 00:28:58;;;;;;;1.77;1.57;;;16.90;58.30;;;;;;5071738;28;20472;-45
2021/10/07 00:31:26;;;;;;;1.73;1.63;;;17.00;58.20;;;;;;5079768;28;20673;-46
2021/10/07 00:34:13;;;;;;;1.37;1.27;;;17.00;58.10;;;;;;5078621;28;21062;-46
2021/10/07 00:39:23;;;;;;;2.20;1.40;;;16.90;58.20;;;;;;5083323;28;20998;-45
2021/10/07 00:41:50;;;;;;;3.40;1.60;;;16.90;58.40;;;;;;5087683;28;20520;-45
2021/10/07 00:44:16;;;;;;;2.50;1.70;;;16.80;58.60;;;;;;5073793;28;20257;-46
2021/10/07 00:46:48;;;;;;;2.40;1.70;;;16.80;58.60;;;;;;5081240;28;20919;-45
2021/10/07 00:49:17;;;;;;;3.60;1.67;;;16.90;58.60;;;;;;5078171;28;20563;-46
2021/10/07 00:51:43;;;;;;;1.33;1.20;;;16.90;58.50;;;;;;5076325;28;20492;-46
2021/10/07 00:54:11;;;;;;;1.63;1.53;;;16.80;58.40;;;;;;5088862;28;20445;-47
2021/10/07 00:56:37;;;;;;;1.70;1.40;;;16.80;58.70;;;;;;5074420;28;20335;-46
2021/10/07 00:59:03;;;;;;;2.60;1.53;;;16.70;58.90;;;;;;5086924;28;21220;-45
2021/10/07 01:01:28;;;;;;;2.10;1.00;;;16.70;59.00;;;;;;5084710;28;20442;-44
2021/10/07 01:03:54;;;;;;;2.30;1.27;;;16.70;59.00;;;;;;5087764;28;20273;-48
2021/10/07 01:06:20;;;;;;;3.30;1.90;;;16.70;59.00;;;;;;5079981;28;20277;-45
2021/10/07 01:08:46;;;;;;;3.90;1.20;;;16.70;59.10;;;;;;5086168;28;20204;-47
2021/10/07 01:11:13;;;;;;;2.20;1.50;;;16.50;59.40;;;;;;5084751;28;20511;-45
2021/10/07 01:13:41;;;;;;;1.40;1.30;;;16.50;59.60;;;;;;5082280;28;20199;-44
2021/10/07 01:16:07;;;;;;;2.27;1.47;;;16.60;59.70;;;;;;5087128;28;20433;-48
2021/10/07 01:18:34;;;;;;;4.03;1.53;;;16.60;59.60;;;;;;5076877;28;20881;-45
2021/10/07 01:20:59;;;;;;;1.23;1.10;;;16.60;59.50;;;;;;5075107;28;20459;-47
2021/10/07 01:23:25;;;;;;;2.50;1.30;;;16.40;59.80;;;;;;5080953;28;20804;-46
2021/10/07 01:25:51;;;;;;;1.40;1.30;;;16.40;60.10;;;;;;5081380;28;20221;-48
2021/10/07 01:28:16;;;;;;;1.50;1.40;;;16.30;60.10;;;;;;5086123;28;21106;-44
2021/10/07 01:30:43;;;;;;;2.37;1.60;;;16.30;60.80;;;;;;5078906;28;20220;-47
2021/10/07 01:33:08;;;;;;;1.93;1.50;;;16.20;60.70;;;;;;5080244;28;20192;-47
2021/10/07 01:35:34;;;;;;;3.23;1.50;;;16.20;60.70;;;;;;5085331;28;20529;-45
2021/10/07 01:38:00;;;;;;;2.73;1.50;;;16.30;60.60;;;;;;5089301;28;20222;-46
2021/10/07 01:40:26;;;;;;;1.77;1.50;;;16.40;60.20;;;;;;5080650;28;20196;-44
2021/10/07 01:42:51;;;;;;;1.63;1.50;;;16.40;60.20;;;;;;5078166;28;20269;-47
2021/10/07 01:45:18;;;;;;;8.00;1.93;;;16.40;60.10;;;;;;5083208;28;20195;-45
2021/10/07 01:47:44;;;;;;;1.40;1.30;;;16.30;60.40;;;;;;5077200;28;20222;-50
2021/10/07 01:50:12;;;;;;;3.20;1.70;;;16.20;60.60;;;;;;5084924;28;20476;-47
2021/10/07 01:52:38;;;;;;;2.00;1.47;;;16.10;60.80;;;;;;5076936;28;20442;-45
2021/10/07 01:55:06;;;;;;;2.97;1.60;;;16.20;61.20;;;;;;5077929;28;20483;-47
2021/10/07 01:57:32;;;;;;;1.90;1.80;;;16.30;60.80;;;;;;5084438;28;20445;-45
2021/10/07 01:59:57;;;;;;;1.53;1.30;;;16.30;60.80;;;;;;5080562;28;20438;-50
2021/10/07 02:02:23;;;;;;;3.17;2.20;;;16.20;61.10;;;;;;5079437;28;20702;-46
2021/10/07 02:04:48;;;;;;;4.00;1.93;;;16.30;61.10;;;;;;5084356;28;20233;-46
2021/10/07 02:07:14;;;;;;;3.13;1.93;;;16.30;60.90;;;;;;5077144;28;20188;-47
2021/10/07 02:09:39;;;;;;;1.80;1.50;;;16.40;60.60;;;;;;5078058;28;20954;-45
2021/10/07 02:12:06;;;;;;;2.57;1.43;;;16.40;60.50;;;;;;5078956;28;20227;-45
2021/10/07 02:14:31;;;;;;;2.47;1.83;;;16.20;60.80;;;;;;5083348;28;20279;-50
2021/10/07 02:16:57;;;;;;;3.83;1.33;;;16.10;61.50;;;;;;5084947;28;20547;-45
2021/10/07 02:19:23;;;;;;;3.10;1.87;;;16.20;61.50;;;;;;5079528;28;20188;-46
2021/10/07 02:21:49;;;;;;;3.07;1.57;;;16.40;61.40;;;;;;5078576;28;20192;-45
2021/10/07 02:24:14;;;;;;;1.30;1.20;;;16.30;61.20;;;;;;5083837;28;20818;-48
2021/10/07 02:26:40;;;;;;;3.70;1.73;;;16.20;61.00;;;;;;5078457;28;20247;-48
2021/10/07 02:29:06;;;;;;;2.73;1.50;;;16.30;61.20;;;;;;5075188;28;20231;-46
2021/10/07 02:31:32;;;;;;;3.13;1.40;;;16.30;61.10;;;;;;5078178;28;20223;-45
2021/10/07 02:33:58;;;;;;;1.33;1.23;;;16.20;60.90;;;;;;5088088;28;20470;-48
2021/10/07 02:36:23;;;;;;;3.33;1.63;;;16.10;61.40;;;;;;5083101;28;20662;-47
2021/10/07 02:38:50;;;;;;;2.40;1.67;;;16.20;61.30;;;;;;5076595;28;20755;-47
2021/10/07 02:41:16;;;;;;;5.37;1.93;;;16.30;61.30;;;;;;5080929;28;20192;-45
2021/10/07 02:43:42;;;;;;;1.40;1.23;;;16.20;61.50;;;;;;5082176;28;20572;-49
2021/10/07 02:46:08;;;;;;;4.80;1.70;;;16.30;61.30;;;;;;5090363;28;20545;-46
2021/10/07 02:48:33;;;;;;;1.30;1.20;;;16.40;61.00;;;;;;5080413;28;20442;-45
2021/10/07 02:50:59;;;;;;;1.50;1.40;;;16.50;60.70;;;;;;5085534;28;20686;-48
2021/10/07 02:53:27;;;;;;;2.10;1.60;;;16.60;60.70;;;;;;5081648;28;20560;-48
2021/10/07 02:55:53;;;;;;;2.07;1.60;;;16.50;60.80;;;;;;5077462;28;20310;-48
2021/10/07 02:58:18;;;;;;;1.90;1.50;;;16.30;61.30;;;;;;5076536;28;20629;-49
2021/10/07 03:00:44;;;;;;;2.23;1.60;;;16.20;61.60;;;;;;5078765;28;20207;-46
2021/10/07 03:03:09;;;;;;;2.00;1.47;;;16.20;62.10;;;;;;5079260;28;20191;-47
2021/10/07 03:05:35;;;;;;;4.67;1.80;;;16.20;61.90;;;;;;5075301;28;20199;-47
2021/10/07 03:08:01;;;;;;;3.23;2.10;;;16.30;61.70;;;;;;5080723;28;20219;-48
2021/10/07 03:10:26;;;;;;;1.90;1.60;;;16.30;61.50;;;;;;5085220;28;20244;-46
2021/10/07 03:12:52;;;;;;;1.63;1.40;;;16.20;61.60;;;;;;5082855;28;20563;-46
2021/10/07 03:15:18;;;;;;;2.50;1.60;;;15.90;62.80;;;;;;5080118;28;20202;-46
2021/10/07 03:17:43;;;;;;;1.60;1.50;;;15.90;63.00;;;;;;5088610;28;20187;-46
2021/10/07 03:20:10;;;;;;;3.07;2.77;;;16.00;63.00;;;;;;5080367;28;20187;-49
2021/10/07 03:22:36;;;;;;;1.80;1.70;;;16.10;62.60;;;;;;5083463;28;20225;-46
2021/10/07 03:25:02;;;;;;;2.50;1.40;;;16.20;62.20;;;;;;5075520;28;20434;-48
2021/10/07 03:27:28;;;;;;;3.17;1.70;;;16.30;61.90;;;;;;5075216;28;21009;-46
2021/10/07 03:29:53;;;;;;;1.43;1.33;;;16.40;61.50;;;;;;5073380;28;20485;-46
2021/10/07 03:32:19;;;;;;;2.63;1.40;;;16.40;61.40;;;;;;5077509;28;20235;-47
2021/10/07 03:34:45;;;;;;;1.80;1.70;;;16.50;61.50;;;;;;5077426;28;20651;-46
2021/10/07 03:37:11;;;;;;;3.23;1.60;;;16.50;61.20;;;;;;5088201;28;20191;-51
2021/10/07 03:39:36;;;;;;;1.83;1.70;;;16.60;61.10;;;;;;5082802;28;20532;-45
2021/10/07 03:42:02;;;;;;;4.67;1.70;;;16.60;60.90;;;;;;5060790;28;20644;-46
2021/10/07 03:44:28;;;;;;;2.50;2.00;;;16.70;60.90;;;;;;5076484;28;20187;-45
2021/10/07 03:46:54;;;;;;;3.73;2.20;;;16.60;60.70;;;;;;5077376;28;20233;-45
2021/10/07 03:49:19;;;;;;;2.17;1.87;;;16.60;61.10;;;;;;5072091;28;20231;-48
2021/10/07 03:51:45;;;;;;;1.87;1.50;;;16.60;61.10;;;;;;5080623;28;20276;-45
2021/10/07 03:54:10;;;;;;;2.13;1.90;;;16.70;61.90;;;;;;5078102;28;20194;-46
2021/10/07 03:56:38;;;;;;;2.90;1.70;;;16.70;61.10;;;;;;5081223;28;20254;-46
2021/10/07 03:59:03;;;;;;;6.07;1.80;;;16.70;60.90;;;;;;5084598;28;20229;-45
2021/10/07 04:01:29;;;;;;;2.67;1.50;;;16.80;60.80;;;;;;5079202;28;20433;-47
2021/10/07 04:03:55;;;;;;;3.10;1.73;;;16.80;60.80;;;;;;5080734;28;20548;-45
2021/10/07 04:06:20;;;;;;;3.87;1.93;;;16.80;60.80;;;;;;5078281;28;20199;-46
2021/10/07 04:08:46;;;;;;;4.13;1.53;;;16.80;60.80;;;;;;5086077;28;20277;-49
2021/10/07 04:11:11;;;;;;;2.00;1.50;;;16.80;61.00;;;;;;5080810;28;20685;-46
2021/10/07 04:13:37;;;;;;;2.07;1.60;;;16.70;61.00;;;;;;5078382;28;20250;-45
2021/10/07 04:16:02;;;;;;;2.37;1.63;;;16.70;61.10;;;;;;5074084;28;20199;-47
2021/10/07 04:18:28;;;;;;;3.57;1.53;;;16.70;61.10;;;;;;5083564;28;20218;-46
2021/10/07 04:20:54;;;;;;;1.73;1.47;;;16.70;61.20;;;;;;5077882;28;20271;-47
2021/10/07 04:23:19;;;;;;;1.67;1.27;;;16.60;61.30;;;;;;5077319;28;20282;-46
2021/10/07 04:25:45;;;;;;;2.00;1.67;;;16.60;61.50;;;;;;5077082;28;20196;-45
2021/10/07 04:28:11;;;;;;;4.00;1.70;;;16.60;61.50;;;;;;5084502;28;20642;-46
2021/10/07 04:30:38;;;;;;;1.93;1.70;;;16.60;61.30;;;;;;5081943;28;20264;-46
2021/10/07 04:33:09;;;;;;;1.60;1.50;;;16.60;61.50;;;;;;5083081;28;20182;-47
2021/10/07 04:35:36;;;;;;;4.37;1.77;;;16.40;61.70;;;;;;5081614;28;20438;-50
2021/10/07 04:38:02;;;;;;;2.13;1.67;;;16.50;62.00;;;;;;5084627;28;20435;-45
2021/10/07 04:40:28;;;;;;;5.17;1.77;;;16.50;61.80;;;;;;5082896;28;20992;-45
2021/10/07 04:42:54;;;;;;;3.17;2.40;;;16.60;61.60;;;;;;5089386;28;20274;-49
2021/10/07 04:45:19;;;;;;;2.60;1.87;;;16.60;61.30;;;;;;5085262;28;20196;-45
2021/10/07 04:47:45;;;;;;;2.30;1.60;;;16.60;61.20;;;;;;5083047;28;20195;-45
2021/10/07 04:50:11;;;;;;;2.53;2.33;;;16.60;61.20;;;;;;5088891;28;20713;-47
2021/10/07 04:52:38;;;;;;;2.57;1.90;;;16.60;61.30;;;;;;5090016;28;20266;-46
2021/10/07 04:55:05;;;;;;;5.10;2.10;;;16.60;61.30;;;;;;5078437;28;20188;-46
2021/10/07 04:57:31;;;;;;;3.80;1.87;;;16.60;61.20;;;;;;5080772;28;20462;-47
2021/10/07 04:59:56;;;;;;;1.90;1.80;;;16.50;61.40;;;;;;5087403;28;20465;-49
2021/10/07 05:02:22;;;;;;;2.17;1.70;;;16.60;61.70;;;;;;5085458;28;20222;-47
2021/10/07 05:04:47;;;;;;;1.80;1.63;;;16.50;61.70;;;;;;5081381;28;20245;-49
2021/10/07 05:07:13;;;;;;;2.57;1.80;;;16.60;62.00;;;;;;5086962;28;20267;-46
2021/10/07 05:09:39;;;;;;;3.77;2.40;;;16.60;61.80;;;;;;5084098;28;20244;-47
2021/10/07 05:12:06;;;;;;;3.73;2.00;;;16.50;62.00;;;;;;5089282;28;20231;-50
2021/10/07 05:14:31;;;;;;;2.30;2.10;;;16.50;62.20;;;;;;5085405;28;20438;-46
2021/10/07 05:16:57;;;;;;;2.13;1.93;;;16.50;62.00;;;;;;5081944;28;20936;-45
2021/10/07 05:19:23;;;;;;;2.30;2.00;;;16.60;61.80;;;;;;5077421;28;20207;-51
2021/10/07 05:21:48;;;;;;;2.53;1.83;;;16.60;61.70;;;;;;5082351;28;20310;-45
2021/10/07 05:24:14;;;;;;;2.07;1.90;;;16.70;61.50;;;;;;5089782;28;20617;-49
2021/10/07 05:26:40;;;;;;;3.27;1.80;;;16.60;61.50;;;;;;5073482;28;20245;-46
2021/10/07 05:29:05;;;;;;;2.40;2.17;;;16.70;61.60;;;;;;5079208;28;22017;-47
2021/10/07 05:31:31;;;;;;;4.10;2.10;;;16.70;61.30;;;;;;5082318;28;20246;-48
2021/10/07 05:33:57;;;;;;;7.07;2.17;;;16.70;61.20;;;;;;5088824;28;20274;-46
2021/10/07 05:36:23;;;;;;;3.77;1.90;;;16.60;67.60;;;;;;5076048;28;20190;-48
2021/10/07 05:38:48;;;;;;;2.70;1.80;;;16.90;67.10;;;;;;5077195;28;20196;-45
2021/10/07 05:41:14;;;;;;;1.93;1.60;;;17.20;63.90;;;;;;5079657;28;20294;-50
2021/10/07 05:43:39;;;;;;;2.80;1.80;;;17.60;62.00;;;;;;5076434;28;20857;-46
2021/10/07 05:46:05;;;;;;;2.33;1.90;;;17.80;60.20;;;;;;5082809;28;20180;-44
2021/10/07 05:48:31;;;;;;;3.47;2.00;;;18.00;59.00;;;;;;5080442;28;20211;-46
2021/10/07 05:50:56;;;;;;;6.60;1.83;;;18.10;59.10;;;;;;5081935;28;20224;-46
2021/10/07 05:53:22;;;;;;;2.67;1.90;;;18.00;58.20;;;;;;5078091;28;20203;-49
2021/10/07 05:55:48;;;;;;;4.93;2.03;;;18.10;58.50;;;;;;5084952;28;20200;-46
2021/10/07 05:58:13;;;;;;;2.90;1.63;;;18.10;58.40;;;;;;5081856;28;20192;-45
2021/10/07 06:00:39;;;;;;;3.40;1.97;;;18.00;58.30;;;;;;5078902;28;20676;-44
2021/10/07 06:03:11;;;;;;;5.40;1.90;;;18.00;58.40;;;;;;5082668;28;20656;-46
2021/10/07 06:05:38;;;;;;;2.73;2.00;;;18.00;58.60;;;;;;5077358;28;20200;-45
2021/10/07 06:08:04;;;;;;;4.37;2.50;;;18.00;58.60;;;;;;5081235;28;20976;-46
2021/10/07 06:10:30;;;;;;;3.67;2.37;;;18.00;58.60;;;;;;5073847;28;20503;-45
2021/10/07 06:12:56;;;;;;;3.87;3.20;;;17.80;58.80;;;;;;5081123;28;20425;-45
2021/10/07 06:15:24;;;;;;;2.40;1.77;;;17.80;59.10;;;;;;5079260;28;20246;-44
2021/10/07 06:17:50;;;;;;;3.53;2.23;;;17.90;58.90;;;;;;5080530;28;20246;-45
2021/10/07 06:22:46;;;;;;;4.37;2.30;;;17.90;58.60;;;;;;5089984;28;20191;-45
2021/10/07 06:25:12;;;;;;;4.00;2.67;;;17.90;58.70;;;;;;5078423;28;20491;-47
2021/10/07 06:27:38;;;;;;;3.77;2.10;;;17.90;59.60;;;;;;5084919;28;20445;-45
2021/10/07 06:30:04;;;;;;;4.20;2.33;;;18.00;59.10;;;;;;5081537;28;20223;-46
2021/10/07 06:32:30;;;;;;;3.33;2.20;;;18.00;58.80;;;;;;5076670;28;20292;-45
2021/10/07 06:34:56;;;;;;;6.83;2.40;;;18.00;58.70;;;;;;5082812;28;20445;-46
2021/10/07 06:37:22;;;;;;;3.00;2.27;;;17.90;58.80;;;;;;5088509;28;20248;-46
2021/10/07 06:39:47;;;;;;;2.43;2.23;;;17.90;59.00;;;;;;5076186;28;20207;-47
2021/10/07 06:42:13;;;;;;;5.57;2.50;;;17.90;59.00;;;;;;5086103;28;20195;-46
2021/10/07 06:44:38;;;;;;;2.20;2.00;;;17.90;59.20;;;;;;5086351;28;20187;-46
2021/10/07 06:50:15;;;;;;;3.03;2.73;;;17.90;59.10;;;;;;5081988;22;20266;-46
2021/10/07 06:52:41;;;;;;;2.60;2.27;;;18.00;59.10;;;;;;5049467;28;20491;-46
2021/10/07 06:55:09;;;;;;;5.00;2.43;;;17.90;58.70;;;;;;5049283;28;20242;-45
2021/10/07 06:57:36;;;;;;;2.50;2.30;;;17.90;58.90;;;;;;5051008;28;20457;-47
2021/10/07 07:00:04;;;;;;;3.07;2.80;;;17.90;59.00;;;;;;5048800;28;20912;-45
2021/10/07 07:02:29;;;;;;;4.90;2.53;;;18.00;59.10;;;;;;5050376;28;20489;-45
2021/10/07 07:04:55;;;;;;;2.97;2.50;;;18.00;58.90;;;;;;5049404;28;20443;-45
2021/10/07 07:07:20;;;;;;;4.27;2.30;;;18.00;58.90;;;;;;5049360;28;20201;-46
2021/10/07 07:09:46;;;;;;;4.73;2.20;;;18.00;59.00;;;;;;5044899;28;20200;-46
2021/10/07 07:12:12;;;;;;;2.70;2.30;;;18.10;58.90;;;;;;5051148;28;20227;-47
2021/10/07 07:14:37;;;;;;;3.10;2.00;;;18.10;58.90;;;;;;5050542;28;20193;-45
2021/10/07 07:17:03;;;;;;;4.43;2.90;;;18.00;58.30;;;;;;5051456;28;20505;-47
2021/10/07 07:19:29;;;;;;;3.07;2.63;;;18.00;58.60;;;;;;5050985;28;20220;-44
2021/10/07 07:21:54;;;;;;;5.20;2.97;;;18.10;58.60;;;;;;5050855;28;20264;-45
2021/10/07 07:24:20;;;;;;;4.13;2.67;;;18.10;58.50;;;;;;5049486;28;20246;-45
2021/10/07 07:26:45;;;;;;;2.53;2.33;;;18.20;58.50;;;;;;5051375;28;20196;-45
2021/10/07 07:29:12;;;;;;;3.00;2.80;;;18.30;58.60;;;;;;5050544;28;20197;-46
2021/10/07 07:31:37;;;;;;;3.20;2.30;;;18.30;58.50;;;;;;5051705;28;20224;-45
2021/10/07 07:34:03;;;;;;;3.63;3.17;;;18.30;58.30;;;;;;5050459;28;20435;-45
2021/10/07 07:36:29;;;;;;;3.03;2.60;;;18.40;58.20;;;;;;5050185;28;20195;-46
2021/10/07 07:38:54;;;;;;;3.37;2.20;;;18.40;57.90;;;;;;5050033;28;20671;-46
2021/10/07 07:41:20;;;;;;;3.40;3.10;;;18.50;58.10;;;;;;5047234;28;20837;-49
2021/10/07 07:43:46;;;;;;;4.37;2.80;;;18.60;58.10;;;;;;5050499;28;20764;-44
2021/10/07 07:46:17;;;;;;;7.93;3.90;;;18.70;57.80;;;;;;5050960;28;20196;-45
2021/10/07 07:48:44;;;;;;;3.50;3.10;;;18.70;57.30;;;;;;5048876;28;20478;-46
2021/10/07 07:51:10;;;;;;;4.70;3.67;;;18.70;57.00;;;;;;5047057;28;21009;-44
2021/10/07 07:53:35;;;;;;;3.43;3.13;;;18.60;57.10;;;;;;5050187;28;20513;-44
2021/10/07 07:56:01;;;;;;;3.03;2.70;;;18.60;57.20;;;;;;5051102;28;20647;-47
2021/10/07 07:58:27;;;;;;;4.37;3.30;;;18.60;57.90;;;;;;5042324;28;20196;-46
2021/10/07 08:00:53;;;;;;;3.27;2.97;;;18.60;57.30;;;;;;5042115;28;20196;-47
2021/10/07 08:03:18;;;;;;;4.90;4.50;;;18.50;58.40;;;;;;5039420;28;20791;-48
2021/10/07 08:05:44;;;;;;;6.67;4.00;;;18.80;58.00;;;;;;5052007;28;20192;-46
2021/10/07 08:08:10;;;;;;;5.47;3.63;;;19.00;56.90;;;;;;5055971;28;20192;-46
2021/10/07 08:10:35;;;;;;;5.27;4.23;;;19.20;56.60;;;;;;5060481;28;20750;-45
2021/10/07 08:13:01;;;;;;;4.70;4.20;;;19.30;55.90;;;;;;5053095;28;20203;-45
2021/10/07 08:15:27;;;;;;;5.67;4.50;;;19.40;55.50;;;;;;5052955;28;20263;-45
2021/10/07 08:17:53;;;;;;;5.33;4.83;;;19.50;55.00;;;;;;5051889;28;20423;-45
2021/10/07 08:20:20;;;;;;;7.43;5.63;;;19.50;54.90;;;;;;5051111;28;20185;-45
2021/10/07 08:22:48;;;;;;;5.13;4.73;;;19.60;55.30;;;;;;5053115;28;20472;-45
2021/10/07 08:25:15;;;;;;;7.83;5.03;;;19.60;54.70;;;;;;5052857;28;20481;-46
2021/10/07 08:27:41;;;;;;;5.17;4.27;;;19.60;55.20;;;;;;5054741;28;20463;-44
2021/10/07 08:30:10;;;;;;;5.57;5.17;;;19.70;54.80;;;;;;5052153;28;20860;-45
2021/10/07 08:32:35;;;;;;;5.53;4.90;;;19.90;54.60;;;;;;5053608;28;20491;-45
2021/10/07 08:35:02;;;;;;;5.00;4.27;;;19.90;53.80;;;;;;5052224;28;20439;-47
2021/10/07 08:37:27;;;;;;;7.10;5.30;;;20.00;53.80;;;;;;5053412;28;20493;-45
2021/10/07 08:39:53;;;;;;;5.77;5.10;;;20.10;53.70;;;;;;5051774;28;20450;-45
2021/10/07 08:42:20;;;;;;;4.50;4.10;;;20.10;53.80;;;;;;5053532;28;20708;-46
2021/10/07 08:44:45;;;;;;;5.90;5.30;;;20.20;53.60;;;;;;5052701;28;20202;-47
2021/10/07 08:47:12;;;;;;;4.30;3.90;;;20.20;53.40;;;;;;5052159;28;20513;-45
2021/10/07 08:49:42;;;;;;;4.90;4.40;;;20.30;53.40;;;;;;5051027;28;20236;-49
2021/10/07 08:52:07;;;;;;;6.27;4.73;;;20.30;53.20;;;;;;5052890;28;20497;-45
2021/10/07 08:54:34;;;;;;;5.87;4.57;;;20.30;53.00;;;;;;5045266;28;20964;-49
2021/10/07 08:57:01;;;;;;;5.90;4.20;;;20.40;52.90;;;;;;5047183;28;20227;-45
2021/10/07 08:59:28;;;;;;;5.10;4.70;;;20.50;52.80;;;;;;5054746;28;20434;-45
2021/10/07 09:02:01;;;;;;;9.33;6.30;;;20.50;52.60;;;;;;5051423;28;20940;-44
2021/10/07 09:04:33;;;;;;;6.80;5.40;;;20.50;52.60;;;;;;5052405;28;20453;-45
2021/10/07 09:07:07;;;;;;;8.33;6.03;;;20.50;52.50;;;;;;5052910;28;20449;-49
2021/10/07 09:09:35;;;;;;;7.10;5.50;;;20.60;52.30;;;;;;5050093;28;20435;-45
2021/10/07 09:12:19;;;;;;;5.03;4.53;;;20.60;52.10;;;;;;5048084;28;21988;-46
2021/10/07 09:14:47;;;;;;;5.23;4.63;;;20.60;52.00;;;;;;5049375;28;20499;-45
2021/10/07 09:17:15;;;;;;;6.07;5.57;;;20.70;52.00;;;;;;5050595;28;20431;-45
2021/10/07 09:19:43;;;;;;;4.70;4.30;;;20.70;51.70;;;;;;5050788;28;20800;-44
2021/10/07 09:22:17;;;;;;;4.93;4.33;;;20.80;51.60;;;;;;5053939;28;20442;-46
2021/10/07 09:24:44;;;;;;;5.67;4.30;;;20.90;51.50;;;;;;5050127;28;20439;-45
2021/10/07 09:27:20;;;;;;;3.77;3.47;;;20.90;51.10;;;;;;5051460;28;20435;-46
2021/10/07 09:30:05;;;;;;;3.77;3.47;;;21.00;51.10;;;;;;5052641;28;20878;-46
2021/10/07 09:32:36;;;;;;;6.67;4.13;;;20.90;50.90;;;;;;5051271;28;20483;-45
2021/10/07 09:35:05;;;;;;;3.90;3.60;;;20.90;51.00;;;;;;5048170;28;20443;-45
2021/10/07 09:37:36;;;;;;;4.63;3.73;;;20.90;50.90;;;;;;5048439;28;20427;-45
2021/10/07 09:40:06;;;;;;;11.77;5.10;;;20.90;50.90;;;;;;5051819;28;20443;-45
2021/10/07 09:42:35;;;;;;;5.07;4.57;;;20.90;50.80;;;;;;5053264;28;20447;-45
2021/10/07 09:45:21;;;;;;;6.30;5.27;;;20.90;50.60;;;;;;5050106;28;20945;-45
2021/10/07 09:47:49;;;;;;;4.10;3.80;;;20.80;50.20;;;;;;5051521;28;20435;-45
2021/10/07 09:50:21;;;;;;;5.50;4.67;;;20.70;50.60;;;;;;5050374;28;21478;-47
2021/10/07 09:52:51;;;;;;;4.10;3.70;;;20.80;50.60;;;;;;5042432;28;20887;-47
2021/10/07 09:55:21;;;;;;;4.90;4.00;;;20.80;50.70;;;;;;5047957;28;20427;-45
2021/10/07 09:58:00;;;;;;;5.53;4.13;;;20.80;50.80;;;;;;5050144;28;20447;-47
2021/10/07 10:00:34;;;;;;;6.53;4.87;;;20.90;50.80;;;;;;5050447;28;20485;-48
2021/10/07 10:03:00;;;;;;;6.70;4.20;;;20.90;50.60;;;;;;5047629;28;20439;-44
2021/10/07 10:05:28;;;;;;;4.80;4.30;;;20.90;50.70;;;;;;5051014;28;20439;-44
2021/10/07 10:07:54;;;;;;;6.90;4.53;;;20.90;50.70;;;;;;5050927;28;20427;-47
2021/10/07 10:10:20;;;;;;;6.37;4.90;;;21.00;50.70;;;;;;5050487;28;21282;-44
2021/10/07 10:12:45;;;;;;;6.10;5.20;;;21.00;50.80;;;;;;5048506;28;21069;-44
2021/10/07 10:15:13;;;;;;;5.10;4.70;;;21.00;50.80;;;;;;5052340;28;20507;-44
2021/10/07 10:17:39;;;;;;;8.80;4.63;;;21.00;50.50;;;;;;5052338;28;20224;-44
2021/10/07 10:20:20;;;;;;;7.10;4.80;;;21.00;50.40;;;;;;5051343;28;20443;-44
2021/10/07 10:23:13;;;;;;;7.00;5.00;;;21.00;50.50;;;;;;5051855;28;21016;-45
2021/10/07 10:26:00;;;;;;;8.03;5.13;;;21.00;50.40;;;;;;5032103;28;20442;-44
2021/10/07 10:28:46;;;;;;;8.57;5.40;;;21.00;50.30;;;;;;5049799;28;20489;-47
2021/10/07 10:31:14;;;;;;;6.10;4.80;;;21.10;50.20;;;;;;5051840;28;21055;-46
2021/10/07 10:33:45;;;;;;;11.30;5.37;;;21.20;49.90;;;;;;5051587;28;20858;-44
2021/10/07 10:36:39;;;;;;;9.70;5.50;;;21.20;49.70;;;;;;5052216;28;20513;-43
2021/10/07 10:39:06;;;;;;;6.53;5.20;;;21.20;49.80;;;;;;5046942;28;20491;-44
2021/10/07 10:41:50;;;;;;;6.23;4.83;;;21.10;49.10;;;;;;5045643;28;20456;-46
2021/10/07 10:44:29;;;;;;;7.00;4.57;;;21.10;49.50;;;;;;5047669;28;20454;-45
2021/10/07 10:47:45;;;;;;;4.10;3.67;;;21.10;49.70;;;;;;5051616;28;20443;-45
2021/10/07 10:50:13;;;;;;;5.30;4.43;;;21.20;49.60;;;;;;5045753;28;20475;-45
2021/10/07 10:52:44;;;;;;;5.00;4.50;;;21.20;49.20;;;;;;5050906;28;20506;-46
2021/10/07 10:55:17;;;;;;;4.70;4.23;;;21.10;48.70;;;;;;5049508;28;20435;-46
2021/10/07 10:57:50;;;;;;;5.27;4.87;;;21.10;49.00;;;;;;5049385;28;20451;-45
2021/10/07 11:00:34;;;;;;;4.40;4.00;;;21.00;49.00;;;;;;5050666;28;20435;-45
2021/10/07 11:03:11;;;;;;;5.30;3.67;;;21.00;49.00;;;;;;5050003;28;20934;-46
2021/10/07 11:05:53;;;;;;;4.53;4.13;;;21.00;49.00;;;;;;5051072;28;20451;-45
2021/10/07 11:08:20;;;;;;;8.07;4.37;;;20.90;49.10;;;;;;5045548;28;20427;-45
2021/10/07 11:10:47;;;;;;;4.60;4.07;;;20.90;49.20;;;;;;5041215;28;20489;-45
2021/10/07 11:13:22;;;;;;;4.23;3.83;;;20.80;49.20;;;;;;5051275;28;20501;-45
2021/10/07 11:15:52;;;;;;;4.50;4.17;;;20.50;49.50;;;;;;5051101;28;20514;-45
2021/10/07 11:18:18;;;;;;;4.03;3.73;;;20.60;49.70;;;;;;5049893;28;20435;-45
2021/10/07 11:20:44;;;;;;;4.27;3.90;;;20.60;50.00;;;;;;5050735;28;20801;-45
2021/10/07 11:23:12;;;;;;;4.60;4.20;;;19.90;50.90;;;;;;5051322;28;20242;-45
2021/10/07 11:25:57;;;;;;;4.40;4.00;;;19.60;51.90;;;;;;5050922;28;20192;-46
2021/10/07 11:28:32;;;;;;;4.47;4.07;;;19.60;51.90;;;;;;5039396;28;20455;-45
2021/10/07 11:31:11;;;;;;;4.27;3.90;;;18.90;53.00;;;;;;5050680;28;20470;-45
2021/10/07 11:33:41;;;;;;;5.73;4.70;;;18.60;54.20;;;;;;5048963;28;20435;-46
2021/10/07 11:36:10;;;;;;;4.83;3.57;;;19.10;53.70;;;;;;5047897;28;20434;-45
2021/10/07 11:38:41;;;;;;;3.80;3.30;;;19.50;53.20;;;;;;5048851;28;21037;-45
2021/10/07 11:41:07;;;;;;;4.33;3.63;;;19.80;52.70;;;;;;5048852;28;22274;-45
2021/10/07 11:43:34;;;;;;;4.53;3.80;;;19.90;51.90;;;;;;5049304;28;20433;-48
2021/10/07 11:46:02;;;;;;;5.10;4.50;;;20.10;51.40;;;;;;5050995;28;20431;-46
2021/10/07 11:48:28;;;;;;;4.63;4.23;;;20.30;50.70;;;;;;5049688;28;20466;-46
2021/10/07 11:51:01;;;;;;;6.60;5.67;;;20.40;51.00;;;;;;5049830;28;20487;-45
2021/10/07 11:53:34;;;;;;;6.43;4.50;;;20.40;53.10;;;;;;5050251;28;20449;-46
2021/10/07 11:56:03;;;;;;;4.03;3.17;;;20.60;53.70;;;;;;5047340;28;20431;-46
2021/10/07 11:58:30;;;;;;;6.13;3.90;;;20.80;53.50;;;;;;5049809;28;20431;-46
2021/10/07 12:00:58;;;;;;;5.80;3.17;;;21.20;52.20;;;;;;5046221;28;20442;-45
2021/10/07 12:03:23;;;;;;;4.97;3.00;;;21.60;51.70;;;;;;5048066;28;20465;-45
2021/10/07 12:05:56;;;;;;;4.80;3.10;;;21.70;51.50;;;;;;5043649;28;20431;-45
2021/10/07 12:08:23;;;;;;;6.60;3.10;;;22.00;50.70;;;;;;5050220;28;20283;-46
2021/10/07 12:11:00;;;;;;;3.70;3.30;;;22.30;50.30;;;;;;5049991;28;20530;-45
2021/10/07 12:13:31;;;;;;;8.23;3.50;;;22.50;48.70;;;;;;5046221;28;20446;-45
2021/10/07 12:15:59;;;;;;;3.87;3.00;;;22.60;47.80;;;;;;5047265;28;20831;-46
2021/10/07 12:18:26;;;;;;;3.30;3.00;;;22.70;48.60;;;;;;5047295;28;20489;-44
2021/10/07 12:20:58;;;;;;;2.57;2.37;;;22.70;48.80;;;;;;5048649;28;20466;-46
2021/10/07 12:23:23;;;;;;;3.40;2.70;;;22.80;48.60;;;;;;5050622;28;20435;-46
2021/10/07 12:25:55;;;;;;;2.87;2.67;;;23.00;47.80;;;;;;5049077;28;20938;-48
2021/10/07 12:28:21;;;;;;;3.30;3.00;;;23.00;46.60;;;;;;5049995;28;20250;-44
2021/10/07 12:30:50;;;;;;;3.90;3.67;;;22.80;47.20;;;;;;5044058;28;20844;-46
2021/10/07 12:33:15;;;;;;;4.43;3.73;;;22.60;47.60;;;;;;5052435;28;20596;-49
2021/10/07 12:36:16;;;;;;;2.90;2.70;;;22.40;47.60;;;;;;5050225;28;20427;-45
2021/10/07 12:38:52;;;;;;;4.80;2.67;;;22.30;48.00;;;;;;4964638;28;20207;-45
2021/10/07 12:41:29;;;;;;;3.40;3.10;;;22.20;48.20;;;;;;5040147;28;20454;-45
2021/10/07 12:43:57;;;;;;;3.13;2.83;;;22.20;48.20;;;;;;5049841;28;20492;-48
2021/10/07 12:46:24;;;;;;;3.57;2.90;;;22.10;48.30;;;;;;5050615;28;20439;-44
2021/10/07 12:48:50;;;;;;;3.30;3.07;;;22.10;48.60;;;;;;5049417;28;20459;-44
2021/10/07 12:51:17;;;;;;;3.30;3.00;;;22.00;48.90;;;;;;5054557;28;20490;-44
2021/10/07 12:53:45;;;;;;;3.90;2.80;;;22.00;48.80;;;;;;5052758;28;20193;-46
2021/10/07 12:56:17;;;;;;;3.20;2.90;;;22.00;49.00;;;;;;5054184;28;21163;-45
2021/10/07 12:58:58;;;;;;;2.80;2.60;;;22.00;48.70;;;;;;5049335;28;20857;-46
2021/10/07 13:01:26;;;;;;;3.63;2.90;;;22.10;48.80;;;;;;5050640;28;20534;-45
2021/10/07 13:04:15;;;;;;;2.90;2.53;;;22.00;48.50;;;;;;5052727;28;20431;-48